createdAt,value
2018-03-25T00:00:17.244Z,14.93
2018-03-25T00:02:44.165Z,11.83
2018-03-25T00:05:11.115Z,11.77
2018-03-25T00:07:38.016Z,14.67
2018-03-25T00:10:05.021Z,12.53
2018-03-25T00:12:31.911Z,11.17
2018-03-25T00:14:58.905Z,12.77
2018-03-25T00:17:25.795Z,13.20
2018-03-25T00:19:52.740Z,10.77
2018-03-25T00:22:19.623Z,13.07
2018-03-25T00:25:02.018Z,9.80
2018-03-25T00:27:29.799Z,11.60
2018-03-25T00:29:56.748Z,11.10
2018-03-25T00:32:23.824Z,12.23
2018-03-25T00:34:50.747Z,9.73
2018-03-25T00:37:17.716Z,13.83
2018-03-25T00:39:44.638Z,11.73
2018-03-25T00:42:11.717Z,12.50
2018-03-25T00:44:38.658Z,12.27
2018-03-25T00:47:05.619Z,12.73
2018-03-25T00:49:32.526Z,11.37
2018-03-25T00:51:59.456Z,11.00
2018-03-25T00:54:26.396Z,10.87
2018-03-25T00:56:53.302Z,11.40
2018-03-25T00:59:20.194Z,13.57
2018-03-25T01:01:47.083Z,11.90
2018-03-25T01:04:14.005Z,12.60
2018-03-25T01:06:41.023Z,14.07
2018-03-25T01:09:07.943Z,12.10
2018-03-25T01:11:34.858Z,12.60
2018-03-25T01:14:01.824Z,11.13
2018-03-25T01:16:28.753Z,16.20
2018-03-25T01:18:55.635Z,13.87
2018-03-25T01:21:22.522Z,12.47
2018-03-25T01:23:49.445Z,13.33
2018-03-25T01:26:16.336Z,14.90
2018-03-25T01:28:43.254Z,13.80
2018-03-25T01:31:10.164Z,13.87
2018-03-25T01:33:37.067Z,11.27
2018-03-25T01:36:03.976Z,13.00
2018-03-25T01:38:30.876Z,14.93
2018-03-25T01:40:57.787Z,12.90
2018-03-25T01:43:24.664Z,13.60
2018-03-25T01:45:51.590Z,9.07
2018-03-25T01:48:18.481Z,9.93
2018-03-25T01:50:45.437Z,12.07
2018-03-25T01:53:12.340Z,11.50
2018-03-25T01:55:39.262Z,11.03
2018-03-25T01:58:06.151Z,11.73
2018-03-25T02:00:33.274Z,14.00
2018-03-25T02:03:00.303Z,13.63
2018-03-25T02:05:27.208Z,11.27
2018-03-25T02:07:54.090Z,12.27
2018-03-25T02:10:21.005Z,9.40
2018-03-25T02:12:47.951Z,11.50
2018-03-25T02:15:14.955Z,12.53
2018-03-25T02:17:41.826Z,11.13
2018-03-25T02:20:08.780Z,11.23
2018-03-25T02:22:35.670Z,11.60
2018-03-25T02:25:02.514Z,9.77
2018-03-25T02:27:29.422Z,10.23
2018-03-25T02:29:56.307Z,10.47
2018-03-25T02:32:23.306Z,10.23
2018-03-25T02:34:50.210Z,12.60
2018-03-25T02:37:17.128Z,15.40
2018-03-25T02:39:44.014Z,11.50
2018-03-25T02:42:10.967Z,13.47
2018-03-25T02:44:37.848Z,13.93
2018-03-25T02:47:04.761Z,13.70
2018-03-25T02:49:31.675Z,14.80
2018-03-25T02:51:58.603Z,9.23
2018-03-25T02:54:25.505Z,12.37
2018-03-25T02:56:52.439Z,10.53
2018-03-25T02:59:19.347Z,14.40
2018-03-25T03:01:46.300Z,12.03
2018-03-25T03:04:13.203Z,14.50
2018-03-25T03:06:40.127Z,10.00
2018-03-25T03:09:07.051Z,11.33
2018-03-25T03:11:34.014Z,10.50
2018-03-25T03:14:00.901Z,13.23
2018-03-25T03:16:27.855Z,11.60
2018-03-25T03:18:54.749Z,11.03
2018-03-25T03:21:21.672Z,11.23
2018-03-25T03:23:48.556Z,11.60
2018-03-25T03:26:15.465Z,9.07
2018-03-25T03:28:42.365Z,9.50
2018-03-25T03:31:09.440Z,9.63
2018-03-25T03:33:36.340Z,16.50
2018-03-25T03:36:04.902Z,12.40
2018-03-25T03:38:31.792Z,12.17
2018-03-25T03:40:58.707Z,16.67
2018-03-25T03:43:25.596Z,12.83
2018-03-25T03:45:52.526Z,11.60
2018-03-25T03:48:19.527Z,13.23
2018-03-25T03:50:46.457Z,11.00
2018-03-25T03:53:13.334Z,12.30
2018-03-25T03:55:40.264Z,14.20
2018-03-25T03:58:07.145Z,12.03
2018-03-25T04:00:34.082Z,11.13
2018-03-25T04:03:01.061Z,13.00
2018-03-25T04:05:27.964Z,12.23
2018-03-25T04:07:54.917Z,13.00
2018-03-25T04:10:21.829Z,12.87
2018-03-25T04:12:48.710Z,11.33
2018-03-25T04:15:15.688Z,8.97
2018-03-25T04:17:42.600Z,12.17
2018-03-25T04:20:09.497Z,15.87
2018-03-25T04:22:36.417Z,12.63
2018-03-25T04:25:03.298Z,12.03
2018-03-25T04:27:30.266Z,12.67
2018-03-25T04:29:57.176Z,11.13
2018-03-25T04:32:24.078Z,18.90
2018-03-25T04:34:50.952Z,13.30
2018-03-25T04:37:17.878Z,11.30
2018-03-25T04:39:44.803Z,12.83
2018-03-25T04:42:11.745Z,11.80
2018-03-25T04:44:38.626Z,12.10
2018-03-25T04:47:05.545Z,14.73
2018-03-25T04:49:32.440Z,11.40
2018-03-25T04:51:59.348Z,9.90
2018-03-25T04:54:26.272Z,11.20
2018-03-25T04:56:53.151Z,12.60
2018-03-25T04:59:20.048Z,13.00
2018-03-25T05:01:46.974Z,12.70
2018-03-25T05:04:13.855Z,15.10
2018-03-25T05:06:40.775Z,12.80
2018-03-25T05:09:07.660Z,12.73
2018-03-25T05:11:34.576Z,10.33
2018-03-25T05:14:01.455Z,16.20
2018-03-25T05:16:28.379Z,14.50
2018-03-25T05:18:55.266Z,17.10
2018-03-25T05:21:22.224Z,12.17
2018-03-25T05:23:49.115Z,15.30
2018-03-25T05:26:16.057Z,13.40
2018-03-25T05:28:43.011Z,13.10
2018-03-25T05:31:09.987Z,11.30
2018-03-25T05:33:36.947Z,14.27
2018-03-25T05:36:03.865Z,12.33
2018-03-25T05:38:30.764Z,16.53
2018-03-25T05:40:57.644Z,10.47
2018-03-25T05:43:24.559Z,12.50
2018-03-25T05:45:51.538Z,12.13
2018-03-25T05:48:18.532Z,15.93
2018-03-25T05:50:45.463Z,15.13
2018-03-25T05:53:12.457Z,15.70
2018-03-25T05:55:39.343Z,17.00
2018-03-25T05:58:06.336Z,14.38
2018-03-25T06:00:33.314Z,13.43
2018-03-25T06:03:00.307Z,16.48
2018-03-25T06:05:27.294Z,15.82
2018-03-25T06:07:54.232Z,18.83
2018-03-25T06:10:21.199Z,15.57
2018-03-25T06:12:48.182Z,12.50
2018-03-25T06:15:15.266Z,18.77
2018-03-25T06:17:42.287Z,14.32
2018-03-25T06:20:09.263Z,17.55
2018-03-25T06:22:36.272Z,15.93
2018-03-25T06:25:03.402Z,13.20
2018-03-25T06:27:30.400Z,16.95
2018-03-25T06:29:57.372Z,15.52
2018-03-25T06:32:24.367Z,14.70
2018-03-25T06:34:51.338Z,15.60
2018-03-25T06:37:18.327Z,16.00
2018-03-25T06:39:45.312Z,17.37
2018-03-25T06:42:12.267Z,18.15
2018-03-25T06:44:39.310Z,17.00
2018-03-25T06:47:06.222Z,15.57
2018-03-25T06:49:33.247Z,17.93
2018-03-25T06:52:00.184Z,14.07
2018-03-25T06:54:27.128Z,19.33
2018-03-25T06:56:54.002Z,14.80
2018-03-25T06:59:20.988Z,16.30
2018-03-25T07:01:47.889Z,17.67
2018-03-25T07:04:14.874Z,16.77
2018-03-25T07:06:41.850Z,18.33
2018-03-25T07:09:08.765Z,23.03
2018-03-25T07:11:35.716Z,19.60
2018-03-25T07:14:02.631Z,19.80
2018-03-25T07:16:29.524Z,20.83
2018-03-25T07:18:56.440Z,16.70
2018-03-25T07:21:23.385Z,16.07
2018-03-25T07:23:50.341Z,24.80
2018-03-25T07:26:17.345Z,19.63
2018-03-25T07:28:44.331Z,18.30
2018-03-25T07:31:11.523Z,18.40
2018-03-25T07:33:38.682Z,23.43
2018-03-25T07:36:05.883Z,20.30
2018-03-25T07:38:33.002Z,22.83
2018-03-25T07:41:00.133Z,24.90
2018-03-25T07:43:27.400Z,25.77
2018-03-25T07:45:54.581Z,20.37
2018-03-25T07:48:22.019Z,22.33
2018-03-25T07:50:50.439Z,20.43
2018-03-25T07:53:17.732Z,23.13
2018-03-25T07:55:44.899Z,20.80
2018-03-25T07:58:12.067Z,21.37
2018-03-25T08:00:39.260Z,18.73
2018-03-25T08:03:07.347Z,14.30
2018-03-25T08:05:37.795Z,17.97
2018-03-25T08:08:05.175Z,20.40
2018-03-25T08:10:32.503Z,19.57
2018-03-25T08:12:59.615Z,24.27
2018-03-25T08:15:26.744Z,15.47
2018-03-25T08:17:54.227Z,20.63
2018-03-25T08:20:21.706Z,17.03
2018-03-25T08:22:48.977Z,20.33
2018-03-25T08:25:16.041Z,24.90
2018-03-25T08:27:45.805Z,19.23
2018-03-25T08:30:12.921Z,18.00
2018-03-25T08:32:40.072Z,20.80
2018-03-25T08:35:07.066Z,15.70
2018-03-25T08:37:34.073Z,20.37
2018-03-25T08:40:00.980Z,21.30
2018-03-25T08:42:27.942Z,29.50
2018-03-25T08:44:54.953Z,22.03
2018-03-25T08:47:21.961Z,17.13
2018-03-25T08:49:48.914Z,19.70
2018-03-25T08:52:15.855Z,16.03
2018-03-25T08:54:42.747Z,25.20
2018-03-25T08:57:09.680Z,15.30
2018-03-25T08:59:36.611Z,15.70
2018-03-25T09:02:03.570Z,14.30
2018-03-25T09:04:30.473Z,19.40
2018-03-25T09:06:59.299Z,20.50
2018-03-25T09:09:26.265Z,21.27
2018-03-25T09:11:53.194Z,18.43
2018-03-25T09:14:20.096Z,20.90
2018-03-25T09:16:47.040Z,17.77
2018-03-25T09:19:13.928Z,19.27
2018-03-25T09:21:40.890Z,19.43
2018-03-25T09:24:07.822Z,16.03
2018-03-25T09:26:34.727Z,19.60
2018-03-25T09:29:01.638Z,18.10
2018-03-25T09:31:28.645Z,17.63
2018-03-25T09:33:55.537Z,19.20
2018-03-25T09:36:22.485Z,18.30
2018-03-25T09:38:49.436Z,18.20
2018-03-25T09:41:16.363Z,18.00
2018-03-25T09:43:43.280Z,17.40
2018-03-25T09:46:10.251Z,17.20
2018-03-25T09:48:37.356Z,23.60
2018-03-25T09:51:04.502Z,19.07
2018-03-25T09:53:31.748Z,19.30
2018-03-25T09:55:59.043Z,19.23
2018-03-25T09:58:26.101Z,16.60
2018-03-25T10:00:58.725Z,21.60
2018-03-25T10:03:30.538Z,23.93
2018-03-25T10:05:57.567Z,21.67
2018-03-25T10:08:24.570Z,21.73
2018-03-25T10:10:51.540Z,18.10
2018-03-25T10:13:18.517Z,22.07
2018-03-25T10:15:45.533Z,20.17
2018-03-25T10:18:12.502Z,18.70
2018-03-25T10:20:41.780Z,21.20
2018-03-25T10:23:08.755Z,21.70
2018-03-25T10:25:36.717Z,21.17
2018-03-25T10:28:03.745Z,20.70
2018-03-25T10:30:30.734Z,22.20
2018-03-25T10:32:58.266Z,16.40
2018-03-25T10:35:25.230Z,17.87
2018-03-25T10:37:52.190Z,17.43
2018-03-25T10:40:19.171Z,22.67
2018-03-25T10:42:46.135Z,16.60
2018-03-25T10:45:13.147Z,18.53
2018-03-25T10:47:40.078Z,20.53
2018-03-25T10:50:07.061Z,18.87
2018-03-25T10:52:34.108Z,19.70
2018-03-25T10:55:01.120Z,18.03
2018-03-25T10:57:28.099Z,18.67
2018-03-25T10:59:55.039Z,19.60
2018-03-25T11:02:22.040Z,18.60
2018-03-25T11:04:48.991Z,18.63
2018-03-25T11:07:15.989Z,19.33
2018-03-25T11:09:43.038Z,17.40
2018-03-25T11:12:10.036Z,17.47
2018-03-25T11:14:37.048Z,20.93
2018-03-25T11:17:04.135Z,17.03
2018-03-25T11:19:31.296Z,17.30
2018-03-25T11:21:58.498Z,13.73
2018-03-25T11:24:26.170Z,16.70
2018-03-25T11:26:53.844Z,15.20
2018-03-25T11:29:20.909Z,16.07
2018-03-25T11:31:47.930Z,18.77
2018-03-25T11:34:15.007Z,17.90
2018-03-25T11:36:42.096Z,18.17
2018-03-25T11:39:09.537Z,16.60
2018-03-25T11:41:36.726Z,16.10
2018-03-25T11:44:03.847Z,15.40
2018-03-25T11:46:31.042Z,15.73
2018-03-25T11:48:58.031Z,17.33
2018-03-25T11:51:25.015Z,15.17
2018-03-25T11:53:51.981Z,16.23
2018-03-25T11:56:19.091Z,16.37
2018-03-25T11:58:46.036Z,18.87
2018-03-25T12:01:13.093Z,15.43
2018-03-25T12:03:40.059Z,16.90
2018-03-25T12:06:07.193Z,17.87
2018-03-25T12:08:34.155Z,19.73
2018-03-25T12:11:01.103Z,15.07
2018-03-25T12:13:28.064Z,14.83
2018-03-25T12:15:55.157Z,16.50
2018-03-25T12:18:22.271Z,17.67
2018-03-25T12:20:49.722Z,16.63
2018-03-25T12:23:16.842Z,16.87
2018-03-25T12:25:43.859Z,14.30
2018-03-25T12:28:10.919Z,15.63
2018-03-25T12:30:38.058Z,17.87
2018-03-25T12:33:05.065Z,17.30
2018-03-25T12:35:32.110Z,17.23
2018-03-25T12:37:59.448Z,19.93
2018-03-25T12:40:26.612Z,20.40
2018-03-25T12:42:53.733Z,16.20
2018-03-25T12:45:20.806Z,15.90
2018-03-25T12:47:47.978Z,20.13
2018-03-25T12:50:15.258Z,31.13
2018-03-25T12:52:42.421Z,24.17
2018-03-25T12:55:09.492Z,16.33
2018-03-25T12:57:36.606Z,17.73
2018-03-25T13:03:06.474Z,16.90
2018-03-25T13:08:45.394Z,19.40
2018-03-25T13:11:12.444Z,17.50
2018-03-25T13:13:39.541Z,18.53
2018-03-25T13:16:06.796Z,18.83
2018-03-25T13:18:38.142Z,18.40
2018-03-25T13:21:06.209Z,18.77
2018-03-25T13:23:33.287Z,16.63
2018-03-25T13:26:00.583Z,15.83
2018-03-25T13:28:27.635Z,14.50
2018-03-25T13:30:54.739Z,16.93
2018-03-25T13:33:21.796Z,15.63
2018-03-25T13:35:48.855Z,17.50
2018-03-25T13:38:15.881Z,17.53
2018-03-25T13:40:42.947Z,20.23
2018-03-25T13:43:09.990Z,15.30
2018-03-25T13:45:37.111Z,16.43
2018-03-25T13:48:04.185Z,15.80
2018-03-25T13:50:31.249Z,16.50
2018-03-25T13:52:58.252Z,17.40
2018-03-25T13:55:25.409Z,17.80
2018-03-25T13:57:52.493Z,14.80
2018-03-25T14:00:19.878Z,15.13
2018-03-25T14:02:47.163Z,14.97
2018-03-25T14:05:14.297Z,15.70
2018-03-25T14:07:41.434Z,22.27
2018-03-25T14:10:08.542Z,21.03
2018-03-25T14:12:35.859Z,15.70
2018-03-25T14:15:02.938Z,14.50
2018-03-25T14:17:30.007Z,14.87
2018-03-25T14:19:57.074Z,15.63
2018-03-25T14:22:24.149Z,15.60
2018-03-25T14:24:51.353Z,15.77
2018-03-25T14:27:20.540Z,17.33
2018-03-25T14:29:52.152Z,20.10
2018-03-25T14:32:19.762Z,16.80
2018-03-25T14:34:47.737Z,20.07
2018-03-25T14:37:17.064Z,15.27
2018-03-25T14:39:45.617Z,17.37
2018-03-25T14:42:12.851Z,17.93
2018-03-25T14:44:41.148Z,17.60
2018-03-25T14:47:13.246Z,16.97
2018-03-25T14:49:42.549Z,18.83
2018-03-25T14:52:12.947Z,16.33
2018-03-25T14:54:41.160Z,17.30
2018-03-25T14:57:10.337Z,18.83
2018-03-25T15:02:10.836Z,18.43
2018-03-25T15:04:38.240Z,15.83
2018-03-25T15:07:05.299Z,18.10
2018-03-25T15:09:32.397Z,15.37
2018-03-25T15:11:59.543Z,18.47
2018-03-25T15:14:27.277Z,18.60
2018-03-25T15:16:54.317Z,16.40
2018-03-25T15:19:21.400Z,18.23
2018-03-25T15:21:48.451Z,18.97
2018-03-25T15:24:15.436Z,18.00
2018-03-25T15:26:42.392Z,21.23
2018-03-25T15:29:09.600Z,19.57
2018-03-25T15:31:36.683Z,22.33
2018-03-25T15:34:04.176Z,19.60
2018-03-25T15:36:31.685Z,22.57
2018-03-25T15:38:59.869Z,18.63
2018-03-25T15:41:29.167Z,19.00
2018-03-25T15:46:58.967Z,28.63
2018-03-25T15:49:28.814Z,25.83
2018-03-25T15:52:03.998Z,21.73
2018-03-25T15:54:36.554Z,20.67
2018-03-25T15:57:19.571Z,24.07
2018-03-25T15:59:47.723Z,22.17
2018-03-25T16:02:18.311Z,25.17
2018-03-25T16:07:26.558Z,26.87
2018-03-25T16:09:54.235Z,39.73
2018-03-25T16:12:21.867Z,30.60
2018-03-25T16:14:49.536Z,25.17
2018-03-25T16:17:17.182Z,24.00
2018-03-25T16:19:44.798Z,38.10
2018-03-25T16:22:12.418Z,27.37
2018-03-25T16:24:40.071Z,27.23
2018-03-25T16:27:07.793Z,34.67
2018-03-25T16:29:35.492Z,25.47
2018-03-25T16:32:03.068Z,29.93
2018-03-25T16:34:30.706Z,29.67
2018-03-25T16:36:58.330Z,29.10
2018-03-25T16:39:26.112Z,29.93
2018-03-25T16:41:53.720Z,26.87
2018-03-25T16:44:21.363Z,32.30
2018-03-25T16:46:49.024Z,34.10
2018-03-25T16:49:16.687Z,34.03
2018-03-25T16:51:44.305Z,28.53
2018-03-25T16:54:11.919Z,26.60
2018-03-25T16:56:39.546Z,26.90
2018-03-25T16:59:07.185Z,24.30
2018-03-25T17:01:34.802Z,25.43
2018-03-25T17:04:02.451Z,23.93
2018-03-25T17:06:30.079Z,24.63
2018-03-25T17:08:57.710Z,30.13
2018-03-25T17:11:25.336Z,24.50
2018-03-25T17:13:52.988Z,21.23
2018-03-25T17:16:20.602Z,21.37
2018-03-25T17:18:48.207Z,22.37
2018-03-25T17:21:15.981Z,23.07
2018-03-25T17:23:47.158Z,24.30
2018-03-25T17:26:15.685Z,23.97
2018-03-25T17:28:43.324Z,24.87
2018-03-25T17:31:11.332Z,35.20
2018-03-25T17:33:39.379Z,24.53
2018-03-25T17:36:07.364Z,29.30
2018-03-25T17:38:36.754Z,27.10
2018-03-25T17:41:06.427Z,25.50
2018-03-25T17:43:38.151Z,24.40
2018-03-25T17:46:05.987Z,24.10
2018-03-25T17:48:36.338Z,31.30
2018-03-25T17:51:04.271Z,25.20
2018-03-25T17:53:32.593Z,23.17
2018-03-25T17:56:02.782Z,26.03
2018-03-25T17:58:30.407Z,23.60
2018-03-25T18:00:58.199Z,26.07
2018-03-25T18:03:27.858Z,25.80
2018-03-25T18:05:58.534Z,28.27
2018-03-25T18:08:26.450Z,24.10
2018-03-25T18:10:55.810Z,27.60
2018-03-25T18:13:23.585Z,48.73
2018-03-25T18:15:57.610Z,30.03
2018-03-25T18:18:32.799Z,25.77
2018-03-25T18:21:04.428Z,25.07
2018-03-25T18:26:36.385Z,27.40
2018-03-25T18:29:04.031Z,32.37
2018-03-25T18:31:31.702Z,33.20
2018-03-25T18:33:59.410Z,26.53
2018-03-25T18:36:27.037Z,27.90
2018-03-25T18:38:54.762Z,26.20
2018-03-25T18:41:22.369Z,23.57
2018-03-25T18:43:50.031Z,29.83
2018-03-25T18:46:17.631Z,27.23
2018-03-25T18:48:45.291Z,23.90
2018-03-25T18:51:12.965Z,28.07
2018-03-25T18:53:40.615Z,24.67
2018-03-25T18:56:08.256Z,25.27
2018-03-25T18:58:35.930Z,26.30
2018-03-25T19:01:03.579Z,27.83
2018-03-25T19:03:31.238Z,30.40
2018-03-25T19:05:58.897Z,27.73
2018-03-25T19:11:20.738Z,31.20
2018-03-25T19:13:48.736Z,25.67
2018-03-25T19:16:19.412Z,41.93
2018-03-25T19:21:31.118Z,32.53
2018-03-25T19:24:01.988Z,28.30
2018-03-25T19:26:39.553Z,30.70
2018-03-25T19:29:17.580Z,26.13
2018-03-25T19:31:49.886Z,25.97
2018-03-25T19:38:21.595Z,24.13
2018-03-25T19:40:49.720Z,27.17
2018-03-25T19:43:18.788Z,25.33
2018-03-25T19:45:46.437Z,31.53
2018-03-25T19:48:14.265Z,24.53
2018-03-25T19:50:42.593Z,28.10
2018-03-25T19:53:10.318Z,25.57
2018-03-25T19:55:38.008Z,26.57
2018-03-25T19:58:05.660Z,26.13
2018-03-25T20:00:33.769Z,27.37
2018-03-25T20:03:01.936Z,32.30
2018-03-25T20:05:29.684Z,27.80
2018-03-25T20:07:57.356Z,38.93
2018-03-25T20:10:25.092Z,27.20
2018-03-25T20:12:52.985Z,26.47
2018-03-25T20:15:20.738Z,29.97
2018-03-25T20:17:48.755Z,29.37
2018-03-25T20:20:16.735Z,22.03
2018-03-25T20:22:44.439Z,27.47
2018-03-25T20:25:12.323Z,30.27
2018-03-25T20:27:40.013Z,30.10
2018-03-25T20:30:07.653Z,27.77
2018-03-25T20:32:35.402Z,28.83
2018-03-25T20:35:04.192Z,31.80
2018-03-25T20:37:31.956Z,30.33
2018-03-25T20:39:59.642Z,27.73
2018-03-25T20:42:27.358Z,24.60
2018-03-25T20:44:55.131Z,27.10
2018-03-25T20:47:23.484Z,27.20
2018-03-25T20:52:24.499Z,23.27
2018-03-25T20:54:52.141Z,21.03
2018-03-25T20:57:19.973Z,25.97
2018-03-25T20:59:47.674Z,25.50
2018-03-25T21:02:15.299Z,30.60
2018-03-25T21:04:42.977Z,28.00
2018-03-25T21:07:10.643Z,21.53
2018-03-25T21:09:38.316Z,25.67
2018-03-25T21:12:05.911Z,25.77
2018-03-25T21:14:33.574Z,27.33
2018-03-25T21:17:01.301Z,25.00
2018-03-25T21:19:28.949Z,25.03
2018-03-25T21:21:56.777Z,23.27
2018-03-25T21:24:24.439Z,25.13
2018-03-25T21:26:52.086Z,25.47
2018-03-25T21:29:19.744Z,26.80
2018-03-25T21:31:47.371Z,24.27
2018-03-25T21:34:15.021Z,25.60
2018-03-25T21:36:42.783Z,28.40
2018-03-25T21:39:10.688Z,26.10
2018-03-25T21:41:38.348Z,24.27
2018-03-25T21:44:06.080Z,22.97
2018-03-25T21:46:33.693Z,27.90
2018-03-25T21:49:01.305Z,25.60
2018-03-25T21:51:28.951Z,24.77
2018-03-25T21:53:56.674Z,25.00
2018-03-25T21:56:24.331Z,25.43
2018-03-25T21:58:51.995Z,26.33
2018-03-25T22:01:19.695Z,28.70
2018-03-25T22:03:47.324Z,26.40
2018-03-25T22:06:15.004Z,26.90
2018-03-25T22:08:42.646Z,26.53
2018-03-25T22:11:10.340Z,29.47
2018-03-25T22:13:38.080Z,25.33
2018-03-25T22:16:05.795Z,25.17
2018-03-25T22:18:33.534Z,25.70
2018-03-25T22:21:01.536Z,28.77
2018-03-25T22:23:29.267Z,25.30
2018-03-25T22:25:56.986Z,29.40
2018-03-25T22:28:24.715Z,38.33
2018-03-25T22:30:52.414Z,26.00
2018-03-25T22:33:20.127Z,27.70
2018-03-25T22:35:49.657Z,22.77
2018-03-25T22:38:17.396Z,28.97
2018-03-25T22:40:45.071Z,31.37
2018-03-25T22:43:12.811Z,28.57
2018-03-25T22:45:40.439Z,29.00
2018-03-25T22:48:08.307Z,30.37
2018-03-25T22:50:36.847Z,29.63
2018-03-25T22:53:04.690Z,27.40
2018-03-25T22:55:32.630Z,26.40
2018-03-25T22:58:01.558Z,27.60
2018-03-25T23:00:29.182Z,26.70
2018-03-25T23:02:57.058Z,29.90
2018-03-25T23:05:24.695Z,27.77
2018-03-25T23:07:52.402Z,27.93
2018-03-25T23:10:20.006Z,26.20
2018-03-25T23:12:47.646Z,25.13
2018-03-25T23:15:15.349Z,29.37
2018-03-25T23:17:43.035Z,27.37
2018-03-25T23:20:10.641Z,27.27
2018-03-25T23:22:38.372Z,29.73
2018-03-25T23:25:05.990Z,31.80
2018-03-25T23:27:33.666Z,30.17
2018-03-25T23:30:01.271Z,28.13
2018-03-25T23:32:28.912Z,28.70
2018-03-25T23:34:56.510Z,28.80
2018-03-25T23:37:24.196Z,28.47
2018-03-25T23:39:51.840Z,28.70
2018-03-25T23:42:19.613Z,31.50
2018-03-25T23:44:47.254Z,29.30
2018-03-25T23:47:14.860Z,29.03
2018-03-25T23:49:42.506Z,31.63
2018-03-25T23:52:10.146Z,31.47
2018-03-25T23:54:37.773Z,29.47
2018-03-25T23:57:05.445Z,28.63
2018-03-25T23:59:33.083Z,28.97
